< < Back
Terminal Aerodrome Forecast


Current Version              Previous Versions:   1  2  3  4  5  6  7  8  9  

Terminal Aerodrome Forecast

589
FTUS44 KBMX 272035 AAA
TAFTCL
TAF AMD
KTCL 272035Z 2721/2818 33012G18KT P6SM BKN060
     FM280400 33006KT P6SM SCT100=

Latest METAR

278
SAUS70 KWBC 280900 RRD
MTRTCL
METAR KTCL 280853Z AUTO 35005KT 10SM OVC120 04/M02 A3016 RMK AO2 SLP213
T00391017 58002


USA.gov is the U.S. government's official web portal to all federal, state and local government web resources and services.